createdAt,value
2022-11-28T00:00:17.857Z,0.55
2022-11-28T00:01:31.820Z,0.57
2022-11-28T00:02:35.901Z,0.57
2022-11-28T00:03:40.152Z,0.57
2022-11-28T00:04:44.510Z,0.57
2022-11-28T00:05:48.701Z,0.56
2022-11-28T00:06:52.952Z,0.56
2022-11-28T00:07:57.205Z,0.57
2022-11-28T00:09:01.592Z,0.57
2022-11-28T00:10:06.662Z,0.58
2022-11-28T00:11:12.343Z,0.59
2022-11-28T00:12:16.250Z,0.58
2022-11-28T00:13:20.132Z,0.58
2022-11-28T00:14:24.165Z,0.58
2022-11-28T00:15:28.011Z,0.58
2022-11-28T00:16:32.039Z,0.58
2022-11-28T00:17:36.049Z,0.58
2022-11-28T00:18:39.893Z,0.58
2022-11-28T00:19:43.759Z,0.59
2022-11-28T00:20:49.119Z,0.59
2022-11-28T00:21:53.040Z,0.60
2022-11-28T00:22:56.971Z,0.59
2022-11-28T00:24:01.987Z,0.59
2022-11-28T00:25:06.266Z,0.59
2022-11-28T00:26:22.154Z,0.59
2022-11-28T00:27:25.996Z,0.57
2022-11-28T00:28:29.894Z,0.58
2022-11-28T00:29:35.431Z,0.57
2022-11-28T00:30:39.526Z,0.57
2022-11-28T00:31:43.609Z,0.57
2022-11-28T00:32:47.777Z,0.57
2022-11-28T00:33:51.846Z,0.58
2022-11-28T00:34:55.762Z,0.58
2022-11-28T00:36:01.918Z,0.56
2022-11-28T00:37:05.892Z,0.56
2022-11-28T00:38:09.870Z,0.56
2022-11-28T00:39:14.463Z,0.57
2022-11-28T00:40:18.607Z,0.56
2022-11-28T00:41:25.298Z,0.57
2022-11-28T00:42:35.127Z,0.55
2022-11-28T00:43:42.827Z,0.55
2022-11-28T00:44:47.076Z,0.57
2022-11-28T00:45:51.024Z,0.57
2022-11-28T00:46:55.054Z,0.57
2022-11-28T00:47:59.013Z,0.57
2022-11-28T00:49:04.877Z,0.56
2022-11-28T00:50:09.540Z,0.55
2022-11-28T00:51:16.847Z,0.55
2022-11-28T00:52:20.746Z,0.55
2022-11-28T00:53:24.617Z,0.55
2022-11-28T00:54:28.511Z,0.56
2022-11-28T00:55:32.337Z,0.56
2022-11-28T00:56:39.330Z,0.55
2022-11-28T00:57:44.722Z,0.55
2022-11-28T00:58:48.991Z,0.53
2022-11-28T00:59:52.816Z,0.55
2022-11-28T01:00:56.861Z,0.53
2022-11-28T01:02:00.895Z,0.53
2022-11-28T01:03:05.197Z,0.54
2022-11-28T01:04:11.949Z,0.53
2022-11-28T01:05:15.925Z,0.53
2022-11-28T01:06:32.052Z,0.53
2022-11-28T01:07:36.030Z,0.54
2022-11-28T01:08:40.031Z,0.54
2022-11-28T01:09:43.932Z,0.53
2022-11-28T01:10:47.843Z,0.53
2022-11-28T01:11:53.930Z,0.51
2022-11-28T01:12:57.771Z,0.51
2022-11-28T01:14:02.348Z,0.50
2022-11-28T01:15:11.106Z,0.48
2022-11-28T01:16:15.767Z,0.49
2022-11-28T01:17:19.697Z,0.48
2022-11-28T01:18:23.659Z,0.23
2022-11-28T01:19:27.606Z,0.48
2022-11-28T01:20:31.607Z,0.48
2022-11-28T01:21:36.047Z,0.48
2022-11-28T01:22:40.009Z,0.48
2022-11-28T01:23:44.092Z,0.48
2022-11-28T01:24:47.999Z,0.49
2022-11-28T01:25:51.926Z,0.49
2022-11-28T01:26:55.876Z,0.49
2022-11-28T01:27:59.859Z,0.49
2022-11-28T01:29:03.870Z,0.50
2022-11-28T01:30:08.763Z,0.50
2022-11-28T01:31:16.771Z,0.50
2022-11-28T01:32:20.867Z,0.50
2022-11-28T01:33:26.364Z,0.50
2022-11-28T01:34:30.246Z,-0.06
2022-11-28T01:35:34.175Z,0.50
2022-11-28T01:36:38.121Z,0.50
2022-11-28T01:37:42.187Z,0.50
2022-11-28T01:38:46.673Z,0.51
2022-11-28T01:39:50.539Z,0.51
2022-11-28T01:40:55.932Z,0.52
2022-11-28T01:42:00.009Z,0.50
2022-11-28T01:43:03.982Z,0.50
2022-11-28T01:44:19.760Z,0.52
2022-11-28T01:45:29.670Z,0.50
2022-11-28T01:46:34.812Z,0.52
2022-11-28T01:47:39.294Z,0.50
2022-11-28T01:48:43.582Z,0.49
2022-11-28T01:49:50.219Z,0.50
2022-11-28T01:50:56.978Z,0.50
2022-11-28T01:52:03.941Z,0.50
2022-11-28T01:53:10.844Z,0.49
2022-11-28T01:54:16.794Z,0.50
2022-11-28T01:55:23.661Z,0.49
2022-11-28T01:56:36.262Z,0.49
2022-11-28T01:57:41.429Z,0.49
2022-11-28T01:58:48.314Z,0.48
2022-11-28T01:59:58.259Z,0.49
2022-11-28T02:01:05.521Z,0.50
2022-11-28T02:02:12.727Z,0.49
2022-11-28T02:03:21.356Z,0.48
2022-11-28T02:04:28.095Z,0.49
2022-11-28T02:05:33.700Z,0.48
2022-11-28T02:06:37.761Z,0.48
2022-11-28T02:07:43.141Z,0.48
2022-11-28T02:08:47.246Z,0.46
2022-11-28T02:09:51.171Z,0.46
2022-11-28T02:11:17.514Z,0.46
2022-11-28T02:12:49.974Z,0.47
2022-11-28T02:14:29.802Z,0.46
2022-11-28T02:16:12.854Z,0.46
2022-11-28T02:17:25.715Z,0.43
2022-11-28T02:18:35.385Z,0.41
2022-11-28T02:20:01.552Z,0.41
2022-11-28T02:21:33.939Z,0.39
2022-11-28T02:22:57.485Z,0.39
2022-11-28T02:24:07.272Z,0.36
2022-11-28T02:25:34.980Z,0.37
2022-11-28T02:26:56.676Z,0.36
2022-11-28T02:28:36.726Z,0.36
2022-11-28T02:30:04.321Z,0.34
2022-11-28T02:31:11.314Z,0.34
2022-11-28T02:32:36.000Z,0.34
2022-11-28T02:33:48.801Z,0.34
2022-11-28T02:35:07.531Z,0.34
2022-11-28T02:36:17.368Z,0.33
2022-11-28T02:37:35.972Z,0.35
2022-11-28T02:38:54.711Z,0.35
2022-11-28T02:40:10.475Z,0.34
2022-11-28T02:41:32.414Z,0.34
2022-11-28T02:42:42.255Z,0.38
2022-11-28T02:44:22.328Z,0.38
2022-11-28T02:45:40.969Z,0.37
2022-11-28T02:46:50.618Z,0.36
2022-11-28T02:47:57.514Z,0.37
2022-11-28T02:49:06.521Z,0.36
2022-11-28T02:50:28.787Z,0.36
2022-11-28T02:51:42.454Z,0.37
2022-11-28T02:52:49.398Z,0.37
2022-11-28T02:53:55.656Z,0.37
2022-11-28T02:55:00.795Z,0.37
2022-11-28T02:56:05.719Z,0.37
2022-11-28T02:57:10.164Z,0.38
2022-11-28T02:58:14.105Z,0.24
2022-11-28T02:59:40.577Z,0.38
2022-11-28T03:00:47.174Z,0.39
2022-11-28T03:01:51.261Z,0.40
2022-11-28T03:03:02.363Z,0.40
2022-11-28T03:04:14.905Z,0.40
2022-11-28T03:05:21.741Z,0.40
2022-11-28T03:06:37.304Z,0.42
2022-11-28T03:07:50.090Z,0.42
2022-11-28T03:09:13.637Z,0.41
2022-11-28T03:10:32.341Z,0.41
2022-11-28T03:11:55.856Z,0.40
2022-11-28T03:13:20.323Z,0.40
2022-11-28T03:14:27.182Z,0.39
2022-11-28T03:15:34.093Z,0.38
2022-11-28T03:16:43.799Z,0.38
2022-11-28T03:18:08.782Z,0.39
2022-11-28T03:19:27.644Z,0.37
2022-11-28T03:20:46.741Z,0.37
2022-11-28T03:22:10.146Z,0.34
2022-11-28T03:23:44.088Z,0.34
2022-11-28T03:24:51.010Z,0.33
2022-11-28T03:25:57.866Z,0.29
2022-11-28T03:27:04.884Z,0.27
2022-11-28T03:28:14.382Z,0.27
2022-11-28T03:29:27.402Z,0.27
2022-11-28T03:30:34.414Z,0.27
2022-11-28T03:31:41.409Z,0.28
2022-11-28T03:32:48.385Z,0.27
2022-11-28T03:33:58.046Z,0.29
2022-11-28T03:35:11.007Z,0.30
2022-11-28T03:36:23.673Z,0.31
2022-11-28T03:37:33.234Z,0.30
2022-11-28T03:38:40.110Z,0.30
2022-11-28T03:39:46.957Z,0.30
2022-11-28T03:40:53.881Z,0.30
2022-11-28T03:42:12.537Z,0.31
2022-11-28T03:43:22.321Z,0.31
2022-11-28T03:44:31.879Z,0.31
2022-11-28T03:45:53.619Z,0.31
2022-11-28T03:47:01.045Z,0.31
2022-11-28T03:48:14.045Z,0.31
2022-11-28T03:49:26.641Z,0.31
2022-11-28T03:50:36.812Z,0.31
2022-11-28T03:51:42.288Z,0.31
2022-11-28T03:52:53.632Z,0.32
2022-11-28T03:54:06.202Z,0.32
2022-11-28T03:55:13.138Z,0.31
2022-11-28T03:56:20.082Z,0.32
2022-11-28T03:57:26.963Z,0.32
2022-11-28T03:58:36.582Z,0.32
2022-11-28T03:59:43.497Z,0.34
2022-11-28T04:00:50.430Z,0.35
2022-11-28T04:02:09.353Z,0.36
2022-11-28T04:03:18.809Z,0.35
2022-11-28T04:04:50.823Z,0.37
2022-11-28T04:06:06.529Z,0.34
2022-11-28T04:07:16.273Z,0.34
2022-11-28T04:08:29.255Z,0.34
2022-11-28T04:09:42.136Z,0.35
2022-11-28T04:11:03.911Z,0.35
2022-11-28T04:12:13.635Z,0.35
2022-11-28T04:13:39.084Z,0.34
2022-11-28T04:14:45.928Z,0.33
2022-11-28T04:16:04.677Z,0.33
2022-11-28T04:17:17.375Z,0.33
2022-11-28T04:18:39.535Z,0.32
2022-11-28T04:19:46.481Z,0.32
2022-11-28T04:21:02.499Z,0.32
2022-11-28T04:22:09.429Z,0.32
2022-11-28T04:23:16.303Z,0.32
2022-11-28T04:24:23.281Z,0.31
2022-11-28T04:25:30.242Z,0.32
2022-11-28T04:26:42.411Z,0.32
2022-11-28T04:27:51.949Z,0.33
2022-11-28T04:28:58.825Z,0.35
2022-11-28T04:30:04.740Z,0.35
2022-11-28T04:31:10.168Z,0.33
2022-11-28T04:32:16.657Z,0.33
2022-11-28T04:33:23.471Z,0.33
2022-11-28T04:34:30.401Z,0.32
2022-11-28T04:35:38.763Z,0.32
2022-11-28T04:36:44.086Z,0.32
2022-11-28T04:37:50.619Z,0.33
2022-11-28T04:38:56.671Z,0.34
2022-11-28T04:40:01.879Z,0.34
2022-11-28T04:41:17.607Z,0.34
2022-11-28T04:42:27.259Z,0.34
2022-11-28T04:43:34.246Z,0.34
2022-11-28T04:44:41.359Z,0.34
2022-11-28T04:45:48.500Z,0.33
2022-11-28T04:46:55.627Z,0.33
2022-11-28T04:48:00.043Z,0.33
2022-11-28T04:49:04.114Z,0.34
2022-11-28T04:50:09.527Z,0.33
2022-11-28T04:51:25.247Z,0.35
2022-11-28T04:52:32.160Z,0.35
2022-11-28T04:53:39.054Z,0.35
2022-11-28T04:54:52.075Z,0.36
2022-11-28T04:56:01.805Z,0.35
2022-11-28T04:57:26.793Z,0.36
2022-11-28T04:58:33.738Z,0.36
2022-11-28T04:59:39.787Z,0.34
2022-11-28T05:00:45.733Z,0.35
2022-11-28T05:01:50.765Z,0.35
2022-11-28T05:02:56.458Z,0.34
2022-11-28T05:04:01.123Z,0.34
2022-11-28T05:05:10.961Z,0.34
2022-11-28T05:07:46.120Z,0.36
2022-11-28T05:08:50.054Z,0.37
2022-11-28T05:09:53.965Z,0.38
2022-11-28T05:10:58.041Z,0.38
2022-11-28T05:12:01.986Z,0.40
2022-11-28T05:13:06.268Z,0.39
2022-11-28T05:14:10.237Z,0.39
2022-11-28T05:15:14.505Z,0.39
2022-11-28T05:16:20.768Z,0.36
2022-11-28T05:17:24.787Z,0.34
2022-11-28T05:18:28.746Z,0.33
2022-11-28T05:19:32.860Z,0.31
2022-11-28T05:20:38.564Z,0.31
2022-11-28T05:21:42.623Z,0.31
2022-11-28T05:22:46.552Z,0.31
2022-11-28T05:23:50.557Z,0.31
2022-11-28T05:24:54.570Z,0.32
2022-11-28T05:25:58.435Z,0.32
2022-11-28T05:27:02.505Z,0.33
2022-11-28T05:28:06.496Z,0.33
2022-11-28T05:29:10.410Z,0.33
2022-11-28T05:30:15.037Z,0.33
2022-11-28T05:31:22.460Z,0.34
2022-11-28T05:32:27.960Z,0.34
2022-11-28T05:33:33.326Z,0.32
2022-11-28T05:34:37.904Z,0.31
2022-11-28T05:35:51.100Z,0.32
2022-11-28T05:37:01.521Z,0.30
2022-11-28T05:38:13.387Z,0.29
2022-11-28T05:39:16.163Z,0.28
2022-11-28T05:40:20.433Z,0.26
2022-11-28T05:41:46.691Z,0.25
2022-11-28T05:42:49.115Z,0.25
2022-11-28T05:43:54.261Z,0.23
2022-11-28T05:44:58.351Z,0.19
2022-11-28T05:46:05.686Z,0.19
2022-11-28T05:47:11.565Z,0.21
2022-11-28T05:48:17.102Z,0.20
2022-11-28T05:49:27.662Z,0.23
2022-11-28T05:50:29.740Z,0.23
2022-11-28T05:51:33.683Z,0.23
2022-11-28T05:52:37.621Z,0.23
2022-11-28T05:53:41.676Z,0.21
2022-11-28T05:54:45.669Z,0.21
2022-11-28T05:55:49.667Z,0.21
2022-11-28T05:56:53.605Z,0.20
2022-11-28T05:57:59.247Z,0.23
2022-11-28T05:59:03.269Z,0.25
2022-11-28T06:00:08.098Z,0.23
2022-11-28T06:01:21.046Z,0.26
2022-11-28T06:02:25.121Z,0.26
2022-11-28T06:03:29.118Z,0.24
2022-11-28T06:04:33.130Z,0.24
2022-11-28T06:05:43.818Z,0.25
2022-11-28T06:06:48.460Z,0.25
2022-11-28T06:07:52.533Z,0.26
2022-11-28T06:08:56.438Z,0.26
2022-11-28T06:10:00.434Z,0.28
2022-11-28T06:11:21.052Z,0.30
2022-11-28T06:12:20.146Z,0.32
2022-11-28T06:13:24.518Z,0.32
2022-11-28T06:14:44.895Z,0.35
2022-11-28T06:15:45.768Z,0.38
2022-11-28T06:16:51.313Z,0.40
2022-11-28T06:17:55.879Z,0.40
2022-11-28T06:19:02.444Z,0.45
2022-11-28T06:20:07.496Z,0.44
2022-11-28T06:21:16.488Z,0.47
2022-11-28T06:22:47.115Z,0.47
2022-11-28T06:23:43.800Z,0.47
2022-11-28T06:24:50.399Z,0.47
2022-11-28T06:25:54.394Z,0.46
2022-11-28T06:26:58.298Z,0.46
2022-11-28T06:28:02.205Z,0.46
2022-11-28T06:29:06.222Z,0.47
2022-11-28T06:30:10.565Z,0.47
2022-11-28T06:31:16.791Z,0.50
2022-11-28T06:32:22.251Z,0.52
2022-11-28T06:33:26.368Z,0.52
2022-11-28T06:34:30.445Z,0.52
2022-11-28T06:35:34.425Z,0.55
2022-11-28T06:36:38.886Z,0.56
2022-11-28T06:37:42.853Z,0.57
2022-11-28T06:38:47.147Z,0.60
2022-11-28T06:39:51.159Z,0.61
2022-11-28T06:41:03.789Z,0.62
2022-11-28T06:42:07.749Z,0.62
2022-11-28T06:43:11.579Z,0.61
2022-11-28T06:44:16.751Z,0.63
2022-11-28T06:45:20.607Z,0.63
2022-11-28T06:46:24.716Z,0.64
2022-11-28T06:47:28.718Z,0.64
2022-11-28T06:48:32.624Z,0.66
2022-11-28T06:49:36.585Z,0.66
2022-11-28T06:50:40.597Z,0.68
2022-11-28T06:51:44.645Z,0.69
2022-11-28T06:52:48.494Z,0.70
2022-11-28T06:53:52.416Z,0.71
2022-11-28T06:54:56.243Z,0.72
2022-11-28T06:56:05.974Z,0.73
2022-11-28T06:57:09.814Z,0.70
2022-11-28T06:58:13.721Z,0.70
2022-11-28T06:59:17.566Z,0.71
2022-11-28T07:00:21.603Z,0.71
2022-11-28T07:01:28.877Z,0.72
2022-11-28T07:02:33.363Z,0.73
2022-11-28T07:03:38.147Z,0.75
2022-11-28T07:04:42.058Z,0.76
2022-11-28T07:05:45.975Z,0.78
2022-11-28T07:06:49.891Z,0.78
2022-11-28T07:07:54.813Z,0.81
2022-11-28T07:08:59.566Z,0.81
2022-11-28T07:10:04.209Z,0.83
2022-11-28T07:11:14.221Z,0.83
2022-11-28T07:12:18.356Z,0.85
2022-11-28T07:13:22.352Z,0.85
2022-11-28T07:14:26.379Z,0.86
2022-11-28T07:15:30.293Z,0.90
2022-11-28T07:16:34.631Z,0.89
2022-11-28T07:17:38.911Z,0.61
2022-11-28T07:18:42.984Z,0.91
2022-11-28T07:19:51.929Z,0.91
2022-11-28T07:20:52.524Z,0.88
2022-11-28T07:21:56.440Z,0.88
2022-11-28T07:23:00.346Z,0.88
2022-11-28T07:24:04.339Z,0.89
2022-11-28T07:25:08.586Z,0.91
2022-11-28T07:26:15.091Z,0.91
2022-11-28T07:27:19.748Z,0.91
2022-11-28T07:28:24.911Z,0.91
2022-11-28T07:29:28.926Z,0.89
2022-11-28T07:30:33.052Z,0.91
2022-11-28T07:31:39.276Z,0.87
2022-11-28T07:32:43.209Z,0.87
2022-11-28T07:33:50.041Z,0.91
2022-11-28T07:34:55.073Z,0.89
2022-11-28T07:36:08.313Z,0.92
2022-11-28T07:37:12.194Z,0.94
2022-11-28T07:38:16.129Z,0.98
2022-11-28T07:39:20.045Z,1.00
2022-11-28T07:40:24.017Z,1.02
2022-11-28T07:41:29.000Z,1.06
2022-11-28T07:42:32.832Z,1.06
2022-11-28T07:43:37.072Z,1.13
2022-11-28T07:44:41.134Z,1.14
2022-11-28T07:45:59.987Z,1.16
2022-11-28T07:46:52.908Z,1.18
2022-11-28T07:47:56.459Z,1.20
2022-11-28T07:49:01.059Z,1.20
2022-11-28T07:50:05.725Z,1.25
2022-11-28T07:51:12.278Z,1.26
2022-11-28T07:52:16.500Z,1.27
2022-11-28T07:53:20.452Z,1.27
2022-11-28T07:54:25.930Z,1.27
2022-11-28T07:55:29.943Z,1.28
2022-11-28T07:57:04.421Z,1.27
2022-11-28T07:57:42.517Z,1.27
2022-11-28T07:58:47.982Z,1.27
2022-11-28T07:59:52.050Z,1.29
2022-11-28T08:00:56.171Z,1.26
2022-11-28T08:02:00.116Z,1.27
2022-11-28T08:03:04.237Z,1.25
2022-11-28T08:04:10.450Z,1.25
2022-11-28T08:05:14.491Z,1.24
2022-11-28T08:06:21.471Z,1.19
2022-11-28T08:07:26.964Z,1.19
2022-11-28T08:08:31.025Z,1.22
2022-11-28T08:09:35.053Z,1.22
2022-11-28T08:10:38.992Z,1.19
2022-11-28T08:11:43.170Z,1.20
2022-11-28T08:12:50.485Z,1.20
2022-11-28T08:13:58.035Z,1.20
2022-11-28T08:15:02.097Z,1.17
2022-11-28T08:16:15.182Z,1.16
2022-11-28T08:17:19.261Z,1.16
2022-11-28T08:18:24.056Z,1.18
2022-11-28T08:19:31.912Z,1.18
2022-11-28T08:20:33.734Z,1.15
2022-11-28T08:21:39.607Z,1.18
2022-11-28T08:22:43.464Z,1.16
2022-11-28T08:23:47.797Z,1.15
2022-11-28T08:24:51.659Z,1.16
2022-11-28T08:25:55.601Z,1.17
2022-11-28T08:26:59.683Z,1.14
2022-11-28T08:28:03.868Z,1.16
2022-11-28T08:29:07.728Z,1.17
2022-11-28T08:30:11.896Z,1.19
2022-11-28T08:31:21.460Z,1.16
2022-11-28T08:32:25.379Z,0.90
2022-11-28T08:33:29.255Z,1.21
2022-11-28T08:34:33.136Z,1.22
2022-11-28T08:35:39.639Z,1.22
2022-11-28T08:36:43.614Z,1.16
2022-11-28T08:37:47.604Z,1.17
2022-11-28T08:39:57.482Z,1.18
2022-11-28T08:41:04.138Z,1.21
2022-11-28T08:42:10.020Z,1.20
2022-11-28T08:43:13.619Z,1.19
2022-11-28T08:44:17.589Z,1.19
2022-11-28T08:45:21.434Z,1.14
2022-11-28T08:46:25.408Z,1.15
2022-11-28T08:47:31.304Z,1.15
2022-11-28T08:48:37.042Z,1.15
2022-11-28T08:49:41.153Z,1.19
2022-11-28T08:50:50.023Z,1.15
2022-11-28T08:51:54.039Z,1.19
2022-11-28T08:53:01.804Z,1.19
2022-11-28T08:54:05.269Z,1.21
2022-11-28T08:55:09.570Z,1.21
2022-11-28T08:56:16.714Z,1.23
2022-11-28T08:57:20.723Z,1.22
2022-11-28T08:58:24.590Z,1.24
2022-11-28T08:59:28.584Z,1.24
2022-11-28T09:00:32.571Z,1.25
2022-11-28T09:01:38.115Z,1.26
2022-11-28T09:02:42.153Z,1.26
2022-11-28T09:03:46.890Z,1.29
2022-11-28T09:04:50.882Z,1.30
2022-11-28T09:05:57.649Z,1.32
2022-11-28T09:07:01.580Z,1.33
2022-11-28T09:08:10.425Z,0.76
2022-11-28T09:09:12.750Z,1.36
2022-11-28T09:10:17.095Z,1.36
2022-11-28T09:11:22.665Z,1.37
2022-11-28T09:12:27.897Z,1.38
2022-11-28T09:13:33.697Z,1.38
2022-11-28T09:14:39.404Z,1.41
2022-11-28T09:15:50.076Z,1.42
2022-11-28T09:16:52.738Z,1.42
2022-11-28T09:17:56.713Z,1.44
2022-11-28T09:19:00.739Z,1.46
2022-11-28T09:20:05.972Z,1.46
2022-11-28T09:21:12.660Z,1.47
2022-11-28T09:22:16.645Z,1.21
2022-11-28T09:23:20.600Z,1.49
2022-11-28T09:24:24.444Z,1.49
2022-11-28T09:25:28.417Z,1.47
2022-11-28T09:26:34.085Z,1.47
2022-11-28T09:27:37.963Z,1.48
2022-11-28T09:28:44.909Z,1.51
2022-11-28T09:29:48.137Z,1.50
2022-11-28T09:30:55.071Z,1.53
2022-11-28T09:31:59.057Z,1.55
2022-11-28T09:33:02.901Z,1.55
2022-11-28T09:34:06.910Z,1.58
2022-11-28T09:35:10.833Z,1.57
2022-11-28T09:36:17.204Z,1.54
2022-11-28T09:37:21.204Z,1.55
2022-11-28T09:38:28.751Z,1.55
2022-11-28T09:39:44.286Z,1.56
2022-11-28T09:40:46.325Z,1.58
2022-11-28T09:42:11.352Z,1.60
2022-11-28T09:43:24.288Z,1.59
2022-11-28T09:44:43.270Z,1.60
2022-11-28T09:45:50.259Z,1.60
2022-11-28T09:46:57.718Z,1.58
2022-11-28T09:48:07.494Z,1.59
2022-11-28T09:49:17.191Z,1.59
2022-11-28T09:50:24.103Z,1.61
2022-11-28T09:51:56.282Z,1.61
2022-11-28T09:53:12.047Z,1.59
2022-11-28T09:54:38.631Z,1.59
2022-11-28T09:55:48.362Z,1.59
2022-11-28T09:56:52.398Z,1.58
2022-11-28T09:57:57.576Z,1.57
2022-11-28T09:59:02.131Z,1.59
2022-11-28T10:00:08.740Z,1.60
2022-11-28T10:03:22.091Z,1.62
2022-11-28T10:04:48.334Z,1.62
2022-11-28T10:06:07.294Z,1.65
2022-11-28T10:07:22.799Z,1.73
2022-11-28T10:08:50.701Z,1.75
2022-11-28T10:09:57.711Z,1.76
2022-11-28T10:11:13.470Z,1.76
2022-11-28T10:12:36.980Z,1.78
2022-11-28T10:15:13.538Z,1.84
2022-11-28T10:16:23.363Z,1.84
2022-11-28T10:17:46.921Z,1.86
2022-11-28T10:19:03.088Z,1.86
2022-11-28T10:20:12.951Z,1.85
2022-11-28T10:21:28.793Z,1.85
2022-11-28T10:22:47.475Z,1.84
2022-11-28T10:23:54.373Z,1.76
2022-11-28T10:25:02.363Z,1.76
2022-11-28T10:26:18.207Z,1.75
2022-11-28T10:27:27.012Z,1.75
2022-11-28T10:28:38.117Z,1.72
2022-11-28T10:29:59.867Z,1.71
2022-11-28T10:31:21.825Z,1.73
2022-11-28T10:32:32.920Z,1.71
2022-11-28T10:33:45.828Z,1.72
2022-11-28T10:35:27.936Z,1.72
2022-11-28T10:36:37.003Z,1.71
2022-11-28T10:37:41.010Z,1.70
2022-11-28T10:38:44.942Z,1.70
2022-11-28T10:39:50.113Z,1.70
2022-11-28T10:41:06.292Z,1.70
2022-11-28T10:42:15.883Z,1.71
2022-11-28T10:43:39.164Z,1.71
2022-11-28T10:44:48.818Z,1.71
2022-11-28T10:45:58.436Z,1.70
2022-11-28T10:47:05.467Z,1.70
2022-11-28T10:48:39.687Z,1.69
2022-11-28T10:49:26.713Z,1.70
2022-11-28T10:50:59.383Z,1.67
2022-11-28T10:52:31.944Z,1.67
2022-11-28T10:54:05.807Z,1.60
2022-11-28T10:55:27.583Z,1.61
2022-11-28T10:56:37.444Z,1.61
2022-11-28T10:57:56.162Z,1.63
2022-11-28T10:59:03.100Z,1.65
2022-11-28T11:00:12.878Z,1.65
2022-11-28T11:01:17.129Z,1.64
2022-11-28T11:02:24.168Z,1.64
2022-11-28T11:03:35.799Z,1.64
2022-11-28T11:04:41.420Z,1.60
2022-11-28T11:05:45.489Z,1.62
2022-11-28T11:07:09.956Z,1.60
2022-11-28T11:08:19.099Z,1.60
2022-11-28T11:09:23.038Z,1.58
2022-11-28T11:10:35.696Z,1.58
2022-11-28T11:11:42.652Z,1.56
2022-11-28T11:12:48.873Z,1.56
2022-11-28T11:13:58.549Z,1.61
2022-11-28T11:15:20.961Z,1.61
2022-11-28T11:16:26.653Z,1.63
2022-11-28T11:17:36.790Z,1.64
2022-11-28T11:18:49.742Z,1.65
2022-11-28T11:19:53.977Z,1.65
2022-11-28T11:21:18.879Z,1.65
2022-11-28T11:22:25.679Z,1.65
2022-11-28T11:23:32.795Z,1.65
2022-11-28T11:27:23.161Z,1.66
2022-11-28T11:28:41.622Z,1.68
2022-11-28T11:29:49.262Z,1.68
2022-11-28T11:30:54.512Z,1.69
2022-11-28T11:31:59.159Z,1.69
2022-11-28T11:33:05.946Z,1.70
2022-11-28T11:34:21.620Z,1.66
2022-11-28T11:35:29.283Z,1.69
2022-11-28T11:36:37.628Z,1.69
2022-11-28T11:37:41.722Z,1.67
2022-11-28T11:38:45.619Z,1.68
2022-11-28T11:39:53.835Z,1.68
2022-11-28T11:40:57.819Z,1.68
2022-11-28T11:42:04.735Z,1.72
2022-11-28T11:43:26.813Z,1.72
2022-11-28T11:44:33.410Z,1.71
2022-11-28T11:45:37.785Z,1.72
2022-11-28T11:46:56.275Z,1.71
2022-11-28T11:48:01.323Z,1.64
2022-11-28T11:49:05.332Z,1.64
2022-11-28T11:50:12.300Z,1.63
2022-11-28T11:51:24.960Z,1.63
2022-11-28T11:52:28.825Z,1.60
2022-11-28T11:53:32.818Z,1.61
2022-11-28T11:54:36.875Z,1.62
2022-11-28T11:55:52.948Z,1.61
2022-11-28T11:57:24.894Z,-1.34
2022-11-28T11:58:09.978Z,1.55
2022-11-28T11:59:30.565Z,1.49
2022-11-28T12:00:37.531Z,1.48
2022-11-28T12:01:44.859Z,1.45
2022-11-28T12:03:00.716Z,1.44
2022-11-28T12:04:37.173Z,1.46
2022-11-28T12:05:17.999Z,1.48
2022-11-28T12:06:24.943Z,1.42
2022-11-28T12:07:34.873Z,1.42
2022-11-28T12:08:54.075Z,1.39
2022-11-28T12:10:04.095Z,1.37
2022-11-28T12:11:09.958Z,1.34
2022-11-28T12:12:28.766Z,1.35
2022-11-28T12:13:34.455Z,1.36
2022-11-28T12:14:38.543Z,1.31
2022-11-28T12:15:54.023Z,1.27
2022-11-28T12:17:46.977Z,1.29
2022-11-28T12:18:30.545Z,1.29
2022-11-28T12:19:40.105Z,1.28
2022-11-28T12:21:06.408Z,1.29
2022-11-28T12:22:19.434Z,1.29
2022-11-28T12:23:29.279Z,1.29
2022-11-28T12:24:52.518Z,1.27
2022-11-28T12:26:23.420Z,1.22
2022-11-28T12:27:32.838Z,1.20
2022-11-28T12:28:48.055Z,0.90
2022-11-28T12:30:09.541Z,0.66
2022-11-28T12:31:44.917Z,1.12
2022-11-28T12:33:09.274Z,1.14
2022-11-28T12:34:18.787Z,1.15
2022-11-28T12:37:06.441Z,-1.85
2022-11-28T12:38:29.670Z,1.18
2022-11-28T12:39:42.906Z,1.17
2022-11-28T12:41:12.310Z,1.19
2022-11-28T12:42:35.629Z,1.20
2022-11-28T12:44:01.440Z,1.19
2022-11-28T12:45:23.436Z,1.18
2022-11-28T12:46:30.457Z,1.14
2022-11-28T12:47:55.379Z,1.12
2022-11-28T12:49:24.290Z,1.11
2022-11-28T12:50:32.380Z,1.10
2022-11-28T12:51:44.071Z,1.10
2022-11-28T12:53:06.090Z,1.06
2022-11-28T12:54:46.093Z,1.06
2022-11-28T12:55:57.510Z,1.04
2022-11-28T12:57:21.772Z,1.04
2022-11-28T12:58:43.674Z,0.98
2022-11-28T13:00:09.968Z,0.98
2022-11-28T13:01:50.712Z,0.99
2022-11-28T13:03:03.873Z,0.99
2022-11-28T13:04:27.254Z,1.01
2022-11-28T13:05:41.253Z,0.98
2022-11-28T13:07:05.749Z,0.98
2022-11-28T13:08:27.791Z,0.98
2022-11-28T13:09:47.278Z,0.99
2022-11-28T13:11:19.662Z,0.98
2022-11-28T13:12:44.740Z,1.00
2022-11-28T13:13:56.996Z,0.98
2022-11-28T13:15:09.675Z,0.98
2022-11-28T13:16:31.795Z,0.97
2022-11-28T13:17:44.738Z,0.95
2022-11-28T13:18:54.708Z,0.95
2022-11-28T13:20:05.956Z,0.95
2022-11-28T13:21:43.989Z,0.95
2022-11-28T13:22:55.221Z,0.95
2022-11-28T13:24:12.944Z,0.95
2022-11-28T13:25:46.934Z,0.95
2022-11-28T13:27:22.588Z,0.93
2022-11-28T13:28:38.316Z,0.91
2022-11-28T13:30:01.828Z,0.91
2022-11-28T13:31:08.808Z,0.91
2022-11-28T13:32:27.072Z,0.91
2022-11-28T13:33:51.890Z,0.91
2022-11-28T13:35:00.898Z,0.88
2022-11-28T13:36:08.347Z,0.87
2022-11-28T13:39:12.371Z,0.86
2022-11-28T13:40:23.715Z,0.88
2022-11-28T13:42:09.645Z,0.86
2022-11-28T13:43:03.509Z,0.83
2022-11-28T13:44:28.332Z,0.83
2022-11-28T13:45:23.861Z,0.80
2022-11-28T13:46:30.774Z,0.83
2022-11-28T13:47:42.075Z,0.84
2022-11-28T13:49:13.774Z,0.87
2022-11-28T13:50:24.523Z,0.87
2022-11-28T13:51:33.263Z,0.88
2022-11-28T13:52:42.913Z,0.88
2022-11-28T13:53:52.310Z,0.89
2022-11-28T13:54:57.852Z,0.90
2022-11-28T13:56:10.711Z,0.86
2022-11-28T13:57:26.316Z,0.87
2022-11-28T13:58:42.252Z,0.88
2022-11-28T13:59:57.871Z,0.88
2022-11-28T14:01:14.131Z,0.88
2022-11-28T14:02:27.204Z,-3.45
2022-11-28T14:03:52.071Z,0.89
2022-11-28T14:04:57.155Z,0.83
2022-11-28T14:06:04.383Z,0.83
2022-11-28T14:07:10.091Z,0.79
2022-11-28T14:08:31.879Z,0.77
2022-11-28T14:10:15.007Z,0.78
2022-11-28T14:11:42.971Z,0.72
2022-11-28T14:13:01.867Z,0.74
2022-11-28T14:14:23.993Z,0.74
2022-11-28T14:15:33.855Z,0.72
2022-11-28T14:17:01.789Z,0.69
2022-11-28T14:18:39.042Z,0.72
2022-11-28T14:19:39.669Z,0.70
2022-11-28T14:21:08.394Z,0.70
2022-11-28T14:22:34.773Z,0.68
2022-11-28T14:23:44.617Z,0.66
2022-11-28T14:24:51.491Z,0.68
2022-11-28T14:25:56.473Z,0.68
2022-11-28T14:27:03.382Z,0.66
2022-11-28T14:28:16.203Z,0.66
2022-11-28T14:29:25.907Z,0.66
2022-11-28T14:30:35.850Z,0.66
2022-11-28T14:31:40.534Z,0.66
2022-11-28T14:32:44.739Z,0.69
2022-11-28T14:33:48.657Z,0.69
2022-11-28T14:34:52.558Z,0.69
2022-11-28T14:36:18.734Z,0.69
2022-11-28T14:37:31.469Z,0.71
2022-11-28T14:38:38.420Z,0.71
2022-11-28T14:39:42.404Z,0.72
2022-11-28T14:41:01.183Z,0.71
2022-11-28T14:42:08.110Z,0.73
2022-11-28T14:43:29.795Z,0.71
2022-11-28T14:44:55.241Z,0.71
2022-11-28T14:46:26.246Z,0.68
2022-11-28T14:47:32.345Z,0.66
2022-11-28T14:48:36.299Z,0.63
2022-11-28T14:49:40.276Z,0.64
2022-11-28T14:50:49.601Z,0.64
2022-11-28T14:52:42.038Z,0.65
2022-11-28T14:53:39.582Z,0.68
2022-11-28T14:54:44.666Z,0.68
2022-11-28T14:55:48.841Z,0.65
2022-11-28T14:56:59.458Z,0.60
2022-11-28T14:58:01.998Z,0.57
2022-11-28T14:59:07.406Z,0.59
2022-11-28T15:00:20.066Z,0.57
2022-11-28T15:01:35.741Z,0.56
2022-11-28T15:03:08.209Z,0.56
2022-11-28T15:04:39.242Z,0.62
2022-11-28T15:05:48.980Z,0.61
2022-11-28T15:06:53.155Z,0.61
2022-11-28T15:08:06.044Z,0.61
2022-11-28T15:09:30.132Z,0.63
2022-11-28T15:10:43.073Z,0.63
2022-11-28T15:12:09.771Z,0.63
2022-11-28T15:13:25.295Z,0.62
2022-11-28T15:14:33.087Z,0.62
2022-11-28T15:15:37.199Z,0.62
2022-11-28T15:16:49.880Z,0.61
2022-11-28T15:17:53.402Z,0.63
2022-11-28T15:19:01.416Z,0.66
2022-11-28T15:20:11.031Z,0.66
2022-11-28T15:21:18.300Z,0.64
2022-11-28T15:22:39.813Z,0.63
2022-11-28T15:23:43.839Z,0.65
2022-11-28T15:24:50.776Z,0.68
2022-11-28T15:26:00.998Z,0.68
2022-11-28T15:27:10.434Z,0.71
2022-11-28T15:28:16.207Z,0.71
2022-11-28T15:29:22.897Z,0.73
2022-11-28T15:30:27.417Z,0.72
2022-11-28T15:31:31.483Z,0.73
2022-11-28T15:32:35.681Z,0.74
2022-11-28T15:33:40.419Z,0.75
2022-11-28T15:34:44.896Z,0.76
2022-11-28T15:36:01.141Z,0.76
2022-11-28T15:37:19.221Z,0.72
2022-11-28T15:38:24.136Z,0.72
2022-11-28T15:39:40.038Z,0.71
2022-11-28T15:40:50.032Z,0.73